createdAt,value
2023-04-18T00:01:27.401Z,96.02
2023-04-18T00:03:53.972Z,96.51
2023-04-18T00:06:22.200Z,96.19
2023-04-18T00:08:48.977Z,96.85
2023-04-18T00:11:15.416Z,96.50
2023-04-18T00:13:41.894Z,96.26
2023-04-18T00:16:08.714Z,95.58
2023-04-18T00:18:36.815Z,97.06
2023-04-18T00:21:04.334Z,98.09
2023-04-18T00:23:31.119Z,97.55
2023-04-18T00:25:57.672Z,97.30
2023-04-18T00:28:24.153Z,97.67
2023-04-18T00:30:50.669Z,98.07
2023-04-18T00:33:17.711Z,97.16
2023-04-18T00:35:44.386Z,96.56
2023-04-18T00:38:10.801Z,96.81
2023-04-18T00:40:37.815Z,96.29
2023-04-18T00:43:04.444Z,95.98
2023-04-18T00:45:31.072Z,96.43
2023-04-18T00:47:57.557Z,96.08
2023-04-18T00:50:24.599Z,97.16
2023-04-18T00:52:52.089Z,97.13
2023-04-18T00:55:18.874Z,97.15
2023-04-18T00:57:45.908Z,97.13
2023-04-18T01:00:12.897Z,98.14
2023-04-18T01:02:40.214Z,98.29
2023-04-18T01:05:07.938Z,97.45
2023-04-18T01:07:37.323Z,97.78
2023-04-18T01:10:04.266Z,98.80
2023-04-18T01:12:30.738Z,99.79
2023-04-18T01:14:57.290Z,99.72
2023-04-18T01:17:23.841Z,99.82
2023-04-18T01:19:50.973Z,99.50
2023-04-18T01:22:19.489Z,99.84
2023-04-18T01:24:45.906Z,99.84
2023-04-18T01:27:13.765Z,99.33
2023-04-18T01:29:43.028Z,98.93
2023-04-18T01:32:09.479Z,99.18
2023-04-18T01:34:36.122Z,99.38
2023-04-18T01:37:02.534Z,99.71
2023-04-18T01:39:29.185Z,98.89
2023-04-18T01:41:55.591Z,98.23
2023-04-18T01:44:22.005Z,98.20
2023-04-18T01:46:48.484Z,98.22
2023-04-18T01:49:15.996Z,98.64
2023-04-18T01:51:43.131Z,98.39
2023-04-18T01:54:09.561Z,98.23
2023-04-18T01:56:35.950Z,98.06
2023-04-18T01:59:02.357Z,98.25
2023-04-18T02:01:28.792Z,98.39
2023-04-18T02:03:55.496Z,98.68
2023-04-18T02:06:22.120Z,99.10
2023-04-18T02:08:48.753Z,99.66
2023-04-18T02:11:15.248Z,99.89
2023-04-18T02:13:41.760Z,99.76
2023-04-18T02:16:12.915Z,99.13
2023-04-18T02:18:40.148Z,98.98
2023-04-18T02:21:07.225Z,98.48
2023-04-18T02:23:33.716Z,98.13
2023-04-18T02:26:00.258Z,98.14
2023-04-18T02:28:26.693Z,98.68
2023-04-18T02:30:53.077Z,99.44
2023-04-18T02:33:19.553Z,99.12
2023-04-18T02:35:45.947Z,99.05
2023-04-18T02:38:13.739Z,99.74
2023-04-18T02:40:40.166Z,99.40
2023-04-18T02:43:06.573Z,99.35
2023-04-18T02:45:33.029Z,99.60
2023-04-18T02:47:59.571Z,100.00
2023-04-18T02:50:26.894Z,100.00
2023-04-18T02:52:53.446Z,100.00
2023-04-18T02:55:20.997Z,100.00
2023-04-18T02:57:47.625Z,100.00
2023-04-18T03:00:14.440Z,100.00
2023-04-18T03:02:41.130Z,100.00
2023-04-18T03:05:08.013Z,100.00
2023-04-18T03:07:34.460Z,100.00
2023-04-18T03:10:00.920Z,100.00
2023-04-18T03:12:27.273Z,100.00
2023-04-18T03:14:53.688Z,100.00
2023-04-18T03:17:20.510Z,100.00
2023-04-18T03:19:46.957Z,100.00
2023-04-18T03:22:14.320Z,100.00
2023-04-18T03:24:40.833Z,100.00
2023-04-18T03:27:07.611Z,100.00
2023-04-18T03:29:34.171Z,100.00
2023-04-18T03:32:00.781Z,100.00
2023-04-18T03:34:27.592Z,100.00
2023-04-18T03:36:54.220Z,100.00
2023-04-18T03:39:20.925Z,100.00
2023-04-18T03:41:47.465Z,100.00
2023-04-18T03:44:14.115Z,100.00
2023-04-18T03:46:41.158Z,100.00
2023-04-18T03:49:07.619Z,100.00
2023-04-18T03:51:44.472Z,100.00
2023-04-18T03:54:11.021Z,100.00
2023-04-18T03:56:37.569Z,100.00
2023-04-18T03:59:04.060Z,100.00
2023-04-18T04:01:30.714Z,100.00
2023-04-18T04:03:57.268Z,100.00
2023-04-18T04:06:24.192Z,100.00
2023-04-18T04:08:50.585Z,100.00
2023-04-18T04:11:17.566Z,100.00
2023-04-18T04:13:44.138Z,100.00
2023-04-18T04:16:10.753Z,100.00
2023-04-18T04:18:37.470Z,100.00
2023-04-18T04:21:05.192Z,100.00
2023-04-18T04:23:31.662Z,100.00
2023-04-18T04:25:58.760Z,100.00
2023-04-18T04:28:26.302Z,100.00
2023-04-18T04:30:53.169Z,100.00
2023-04-18T04:33:20.669Z,100.00
2023-04-18T04:35:47.581Z,100.00
2023-04-18T04:38:15.333Z,100.00
2023-04-18T04:40:42.517Z,100.00
2023-04-18T04:43:12.484Z,100.00
2023-04-18T04:45:41.902Z,100.00
2023-04-18T04:48:09.343Z,99.99
2023-04-18T04:50:41.791Z,100.00
2023-04-18T04:53:08.683Z,99.41
2023-04-18T04:55:35.289Z,98.70
2023-04-18T04:58:01.753Z,98.57
2023-04-18T05:00:28.850Z,98.31
2023-04-18T05:02:57.192Z,98.61
2023-04-18T05:05:23.665Z,97.18
2023-04-18T05:07:50.398Z,97.22
2023-04-18T05:10:17.026Z,97.57
2023-04-18T05:12:43.418Z,96.53
2023-04-18T05:15:10.531Z,95.98
2023-04-18T05:17:37.116Z,95.61
2023-04-18T05:20:04.364Z,95.28
2023-04-18T05:22:30.824Z,94.86
2023-04-18T05:24:57.280Z,94.40
2023-04-18T05:27:23.935Z,93.82
2023-04-18T05:29:52.785Z,93.24
2023-04-18T05:32:22.315Z,92.52
2023-04-18T05:34:49.028Z,91.12
2023-04-18T05:37:15.470Z,91.22
2023-04-18T05:39:41.959Z,90.84
2023-04-18T05:42:11.017Z,90.93
2023-04-18T05:44:37.459Z,90.30
2023-04-18T05:47:07.742Z,89.96
2023-04-18T05:49:37.218Z,88.85
2023-04-18T05:52:06.283Z,88.87
2023-04-18T05:54:35.221Z,87.96
2023-04-18T05:57:03.859Z,87.40
2023-04-18T05:59:30.973Z,87.11
2023-04-18T06:01:57.436Z,86.52
2023-04-18T06:04:24.052Z,86.16
2023-04-18T06:06:53.088Z,85.51
2023-04-18T06:09:19.646Z,85.79
2023-04-18T06:11:46.532Z,85.40
2023-04-18T06:14:13.460Z,85.22
2023-04-18T06:16:40.661Z,85.01
2023-04-18T06:19:07.260Z,85.32
2023-04-18T06:21:33.916Z,84.87
2023-04-18T06:24:01.497Z,84.78
2023-04-18T06:26:29.530Z,83.20
2023-04-18T06:28:56.019Z,83.74
2023-04-18T06:31:22.464Z,83.50
2023-04-18T06:33:48.950Z,83.26
2023-04-18T06:36:15.489Z,83.01
2023-04-18T06:38:41.906Z,83.01
2023-04-18T06:41:08.525Z,82.68
2023-04-18T06:43:36.274Z,82.95
2023-04-18T06:46:04.741Z,81.98
2023-04-18T06:48:31.379Z,82.69
2023-04-18T06:50:57.919Z,82.51
2023-04-18T06:53:24.397Z,83.06
2023-04-18T06:55:51.061Z,83.20
2023-04-18T06:58:17.729Z,82.33
2023-04-18T07:00:45.096Z,83.15
2023-04-18T07:03:13.364Z,82.80
2023-04-18T07:05:40.535Z,82.81
2023-04-18T07:08:07.602Z,82.23
2023-04-18T07:10:34.060Z,82.56
2023-04-18T07:13:00.619Z,82.28
2023-04-18T07:15:27.171Z,82.33
2023-04-18T07:17:56.833Z,83.24
2023-04-18T07:20:23.251Z,83.01
2023-04-18T07:22:49.677Z,82.91
2023-04-18T07:25:16.271Z,80.76
2023-04-18T07:27:42.845Z,79.09
2023-04-18T07:30:09.796Z,80.28
2023-04-18T07:32:36.598Z,80.02
2023-04-18T07:35:04.143Z,80.44
2023-04-18T07:37:31.236Z,79.67
2023-04-18T07:39:57.664Z,79.75
2023-04-18T07:42:24.079Z,80.06
2023-04-18T07:44:50.538Z,79.99
2023-04-18T07:47:22.347Z,78.65
2023-04-18T07:49:49.180Z,79.42
2023-04-18T07:52:15.612Z,79.13
2023-04-18T07:54:42.134Z,78.47
2023-04-18T07:57:08.737Z,77.26
2023-04-18T07:59:35.310Z,77.32
2023-04-18T08:02:02.025Z,77.24
2023-04-18T08:04:30.463Z,74.82
2023-04-18T08:06:57.154Z,75.19
2023-04-18T08:09:23.592Z,74.13
2023-04-18T08:11:50.204Z,71.82
2023-04-18T08:14:16.718Z,70.86
2023-04-18T08:16:43.178Z,65.94
2023-04-18T08:19:09.771Z,68.39
2023-04-18T08:21:36.388Z,67.85
2023-04-18T08:24:02.828Z,67.01
2023-04-18T08:26:29.240Z,71.21
2023-04-18T08:28:55.664Z,72.26
2023-04-18T08:31:22.287Z,72.64
2023-04-18T08:33:48.733Z,70.98
2023-04-18T08:36:15.403Z,72.85
2023-04-18T08:38:41.893Z,72.14
2023-04-18T08:41:08.557Z,72.20
2023-04-18T08:43:35.356Z,71.97
2023-04-18T08:46:01.975Z,72.00
2023-04-18T08:48:28.556Z,72.70
2023-04-18T08:50:59.523Z,72.80
2023-04-18T08:53:26.775Z,72.89
2023-04-18T08:55:57.258Z,71.77
2023-04-18T08:58:26.396Z,71.55
2023-04-18T09:00:55.669Z,72.75
2023-04-18T09:03:41.569Z,72.69
2023-04-18T09:06:14.036Z,72.52
2023-04-18T09:08:54.711Z,72.33
2023-04-18T09:11:21.970Z,72.65
2023-04-18T09:13:48.566Z,72.87
2023-04-18T09:16:14.998Z,72.01
2023-04-18T09:18:42.369Z,71.15
2023-04-18T09:21:19.357Z,70.64
2023-04-18T09:23:50.333Z,71.10
2023-04-18T09:26:33.747Z,71.22
2023-04-18T09:29:00.873Z,71.84
2023-04-18T09:31:27.969Z,71.85
2023-04-18T09:33:56.560Z,72.01
2023-04-18T09:36:27.253Z,72.55
2023-04-18T09:38:56.623Z,71.47
2023-04-18T09:41:24.273Z,70.83
2023-04-18T09:44:11.527Z,70.61
2023-04-18T09:46:45.226Z,69.85
2023-04-18T09:49:13.477Z,68.12
2023-04-18T09:51:43.042Z,67.84
2023-04-18T09:54:14.753Z,66.69
2023-04-18T09:56:44.177Z,67.48
2023-04-18T09:59:12.277Z,67.25
2023-04-18T10:01:41.315Z,68.69
2023-04-18T10:04:08.911Z,67.23
2023-04-18T10:06:39.605Z,67.43
2023-04-18T10:09:09.071Z,67.37
2023-04-18T10:11:36.362Z,68.61
2023-04-18T10:14:07.864Z,68.21
2023-04-18T10:16:36.423Z,66.51
2023-04-18T10:19:29.404Z,66.84
2023-04-18T10:21:57.761Z,67.61
2023-04-18T10:24:50.103Z,67.94
2023-04-18T10:27:17.184Z,67.86
2023-04-18T10:29:51.091Z,66.05
2023-04-18T10:32:23.524Z,65.76
2023-04-18T10:34:50.454Z,65.11
2023-04-18T10:37:18.788Z,63.36
2023-04-18T10:40:06.292Z,63.73
2023-04-18T10:42:48.009Z,64.13
2023-04-18T10:45:24.650Z,63.54
2023-04-18T10:48:11.183Z,62.10
2023-04-18T10:51:12.895Z,61.40
2023-04-18T10:53:40.516Z,62.78
2023-04-18T10:56:10.748Z,62.83
2023-04-18T10:58:37.287Z,63.90
2023-04-18T11:01:06.330Z,63.01
2023-04-18T11:03:34.039Z,61.52
2023-04-18T11:06:04.003Z,61.30
2023-04-18T11:08:33.703Z,61.43
2023-04-18T11:11:03.048Z,59.47
2023-04-18T11:13:29.630Z,57.16
2023-04-18T11:15:56.174Z,56.74
2023-04-18T11:18:22.684Z,54.96
2023-04-18T11:20:51.109Z,56.99
2023-04-18T11:23:24.839Z,57.17
2023-04-18T11:25:56.297Z,56.24
2023-04-18T11:28:24.827Z,57.85
2023-04-18T11:30:51.300Z,59.12
2023-04-18T11:33:19.709Z,59.76
2023-04-18T11:35:49.200Z,59.48
2023-04-18T11:38:16.450Z,60.10
2023-04-18T11:40:50.283Z,60.37
2023-04-18T11:43:21.991Z,61.25
2023-04-18T11:45:55.691Z,60.69
2023-04-18T11:48:23.015Z,60.55
2023-04-18T11:50:49.836Z,59.50
2023-04-18T11:53:40.545Z,59.90
2023-04-18T11:56:07.455Z,58.16
2023-04-18T11:58:34.809Z,59.24
2023-04-18T12:01:19.036Z,60.23
2023-04-18T12:04:06.695Z,60.34
2023-04-18T12:06:50.044Z,59.75
2023-04-18T12:09:17.403Z,60.22
2023-04-18T12:11:44.233Z,59.33
2023-04-18T12:14:21.632Z,56.44
2023-04-18T12:16:51.540Z,55.81
2023-04-18T12:19:20.886Z,54.53
2023-04-18T12:22:00.832Z,53.04
2023-04-18T12:24:28.931Z,54.02
2023-04-18T12:26:57.824Z,52.75
2023-04-18T12:29:25.590Z,51.69
2023-04-18T12:31:54.629Z,48.78
2023-04-18T12:34:21.340Z,54.92
2023-04-18T12:36:47.854Z,55.21
2023-04-18T12:39:14.243Z,55.56
2023-04-18T12:41:43.482Z,55.95
2023-04-18T12:44:10.095Z,56.75
2023-04-18T12:46:36.674Z,55.80
2023-04-18T12:49:03.136Z,55.93
2023-04-18T12:51:29.591Z,56.63
2023-04-18T12:53:56.396Z,58.35
2023-04-18T12:56:23.025Z,60.27
2023-04-18T12:58:49.439Z,61.02
2023-04-18T13:01:16.466Z,60.15
2023-04-18T13:03:43.177Z,58.33
2023-04-18T13:06:09.785Z,55.38
2023-04-18T13:08:38.334Z,58.26
2023-04-18T13:11:04.830Z,58.53
2023-04-18T13:13:34.460Z,59.38
2023-04-18T13:16:02.200Z,60.49
2023-04-18T13:18:28.622Z,61.62
2023-04-18T13:20:55.110Z,62.18
2023-04-18T13:23:21.562Z,60.96
2023-04-18T13:25:48.090Z,60.55
2023-04-18T13:28:14.580Z,61.70
2023-04-18T13:30:41.010Z,60.36
2023-04-18T13:33:07.482Z,61.00
2023-04-18T13:35:33.989Z,61.86
2023-04-18T13:38:00.666Z,61.71
2023-04-18T13:40:27.231Z,62.76
2023-04-18T13:42:53.742Z,63.05
2023-04-18T13:45:20.589Z,63.01
2023-04-18T13:47:47.311Z,63.28
2023-04-18T13:50:13.808Z,63.65
2023-04-18T13:52:40.362Z,64.57
2023-04-18T13:55:07.499Z,64.88
2023-04-18T13:57:34.288Z,64.29
2023-04-18T14:00:01.199Z,64.68
2023-04-18T14:02:27.895Z,65.37
2023-04-18T14:04:54.940Z,65.29
2023-04-18T14:07:21.488Z,64.58
2023-04-18T14:09:48.165Z,64.44
2023-04-18T14:12:14.767Z,64.70
2023-04-18T14:14:41.849Z,64.58
2023-04-18T14:17:08.267Z,64.02
2023-04-18T14:19:34.981Z,64.23
2023-04-18T14:22:01.434Z,63.68
2023-04-18T14:24:27.981Z,60.48
2023-04-18T14:26:54.891Z,58.44
2023-04-18T14:29:21.394Z,59.89
2023-04-18T14:31:47.917Z,59.57
2023-04-18T14:34:14.613Z,59.26
2023-04-18T14:36:41.144Z,61.13
2023-04-18T14:39:08.294Z,61.32
2023-04-18T14:41:34.696Z,59.51
2023-04-18T14:44:01.142Z,59.66
2023-04-18T14:46:28.244Z,57.23
2023-04-18T14:48:54.986Z,55.14
2023-04-18T14:51:21.456Z,57.62
2023-04-18T14:53:47.915Z,55.66
2023-04-18T14:56:15.811Z,57.26
2023-04-18T14:58:42.839Z,58.39
2023-04-18T15:01:09.226Z,58.29
2023-04-18T15:03:35.849Z,56.82
2023-04-18T15:06:02.375Z,57.08
2023-04-18T15:08:30.775Z,58.30
2023-04-18T15:10:58.917Z,57.13
2023-04-18T15:13:25.407Z,55.09
2023-04-18T15:15:56.780Z,54.68
2023-04-18T15:18:23.431Z,55.86
2023-04-18T15:20:50.042Z,55.66
2023-04-18T15:23:16.598Z,57.71
2023-04-18T15:25:44.867Z,57.68
2023-04-18T15:28:13.511Z,58.01
2023-04-18T15:30:40.173Z,56.94
2023-04-18T15:33:06.732Z,57.81
2023-04-18T15:35:33.227Z,59.04
2023-04-18T15:37:59.714Z,58.79
2023-04-18T15:40:26.126Z,58.38
2023-04-18T15:42:54.160Z,58.28
2023-04-18T15:45:21.278Z,58.94
2023-04-18T15:47:47.957Z,60.97
2023-04-18T15:50:15.981Z,60.24
2023-04-18T15:52:42.670Z,60.68
2023-04-18T15:55:11.267Z,60.71
2023-04-18T15:57:37.757Z,60.79
2023-04-18T16:00:27.345Z,60.89
2023-04-18T16:02:54.071Z,61.53
2023-04-18T16:05:20.726Z,62.35
2023-04-18T16:07:47.124Z,60.99
2023-04-18T16:10:15.258Z,61.67
2023-04-18T16:12:41.756Z,62.19
2023-04-18T16:15:09.958Z,60.65
2023-04-18T16:17:37.697Z,60.92
2023-04-18T16:20:09.077Z,62.02
2023-04-18T16:22:36.457Z,61.75
2023-04-18T16:25:04.090Z,61.26
2023-04-18T16:27:30.598Z,61.83
2023-04-18T16:29:57.064Z,60.98
2023-04-18T16:32:23.600Z,62.20
2023-04-18T16:34:50.113Z,63.17
2023-04-18T16:37:16.570Z,63.81
2023-04-18T16:39:43.002Z,63.45
2023-04-18T16:42:09.517Z,63.46
2023-04-18T16:44:35.988Z,63.90
2023-04-18T16:47:04.954Z,63.54
2023-04-18T16:49:31.593Z,63.87
2023-04-18T16:51:58.086Z,64.07
2023-04-18T16:54:24.497Z,64.12
2023-04-18T16:56:50.913Z,64.21
2023-04-18T16:59:17.733Z,64.14
2023-04-18T17:01:44.293Z,64.15
2023-04-18T17:04:11.251Z,63.74
2023-04-18T17:06:37.747Z,64.54
2023-04-18T17:09:06.204Z,63.51
2023-04-18T17:11:38.781Z,64.53
2023-04-18T17:14:06.001Z,64.43
2023-04-18T17:16:32.417Z,65.58
2023-04-18T17:18:58.809Z,65.42
2023-04-18T17:21:26.121Z,65.14
2023-04-18T17:23:53.349Z,66.66
2023-04-18T17:26:19.780Z,66.23
2023-04-18T17:28:46.248Z,67.50
2023-04-18T17:31:16.214Z,68.02
2023-04-18T17:33:43.072Z,67.88
2023-04-18T17:36:09.789Z,68.72
2023-04-18T17:38:36.388Z,68.78
2023-04-18T17:41:04.562Z,67.58
2023-04-18T17:43:31.011Z,68.28
2023-04-18T17:45:59.873Z,68.70
2023-04-18T17:48:26.358Z,68.21
2023-04-18T17:50:52.757Z,67.97
2023-04-18T17:53:19.190Z,68.48
2023-04-18T17:55:48.849Z,69.08
2023-04-18T17:58:16.804Z,68.83
2023-04-18T18:00:43.330Z,69.53
2023-04-18T18:03:13.473Z,69.67
2023-04-18T18:05:41.307Z,70.18
2023-04-18T18:08:07.890Z,70.19
2023-04-18T18:10:34.423Z,70.30
2023-04-18T18:13:00.928Z,70.60
2023-04-18T18:15:28.393Z,71.17
2023-04-18T18:17:55.706Z,71.25
2023-04-18T18:20:22.423Z,71.71
2023-04-18T18:22:49.011Z,71.44
2023-04-18T18:25:15.436Z,71.96
2023-04-18T18:27:42.072Z,71.92
2023-04-18T18:30:09.156Z,72.39
2023-04-18T18:32:35.675Z,72.82
2023-04-18T18:35:02.812Z,73.41
2023-04-18T18:37:29.268Z,72.86
2023-04-18T18:39:59.770Z,73.53
2023-04-18T18:42:26.370Z,73.81
2023-04-18T18:44:52.816Z,72.85
2023-04-18T18:47:19.370Z,73.33
2023-04-18T18:49:45.881Z,73.49
2023-04-18T18:52:12.420Z,73.69
2023-04-18T18:54:38.968Z,73.61
2023-04-18T18:57:05.451Z,73.80
2023-04-18T18:59:32.010Z,73.96
2023-04-18T19:01:58.710Z,73.72
2023-04-18T19:04:25.623Z,74.11
2023-04-18T19:06:53.426Z,73.79
2023-04-18T19:09:19.861Z,73.76
2023-04-18T19:11:46.453Z,73.66
2023-04-18T19:14:13.091Z,74.98
2023-04-18T19:16:39.684Z,74.36
2023-04-18T19:19:06.253Z,74.99
2023-04-18T19:21:32.665Z,75.41
2023-04-18T19:23:59.320Z,75.36
2023-04-18T19:26:25.840Z,74.51
2023-04-18T19:28:52.890Z,75.50
2023-04-18T19:31:19.304Z,75.16
2023-04-18T19:33:45.983Z,75.83
2023-04-18T19:36:12.464Z,75.93
2023-04-18T19:38:38.905Z,75.32
2023-04-18T19:41:05.339Z,75.96
2023-04-18T19:43:31.886Z,75.80
2023-04-18T19:45:59.000Z,75.76
2023-04-18T19:48:25.506Z,75.74
2023-04-18T19:50:51.977Z,77.36
2023-04-18T19:53:18.994Z,76.06
2023-04-18T19:55:45.524Z,76.62
2023-04-18T19:58:11.975Z,77.46
2023-04-18T20:00:39.381Z,76.66
2023-04-18T20:03:05.928Z,76.76
2023-04-18T20:05:32.500Z,76.76
2023-04-18T20:07:58.910Z,76.94
2023-04-18T20:10:25.540Z,76.78
2023-04-18T20:12:52.014Z,76.94
2023-04-18T20:15:18.526Z,77.62
2023-04-18T20:17:45.141Z,77.32
2023-04-18T20:20:12.175Z,77.54
2023-04-18T20:22:40.314Z,77.50
2023-04-18T20:25:07.098Z,77.62
2023-04-18T20:27:33.541Z,76.90
2023-04-18T20:29:59.942Z,77.79
2023-04-18T20:32:26.675Z,77.95
2023-04-18T20:34:53.459Z,77.25
2023-04-18T20:37:20.125Z,78.31
2023-04-18T20:39:47.415Z,78.14
2023-04-18T20:42:14.199Z,78.69
2023-04-18T20:44:43.091Z,78.57
2023-04-18T20:47:09.612Z,78.63
2023-04-18T20:49:36.125Z,78.70
2023-04-18T20:52:02.609Z,79.30
2023-04-18T20:54:29.148Z,79.42
2023-04-18T20:56:55.613Z,78.97
2023-04-18T20:59:22.013Z,79.45
2023-04-18T21:01:48.434Z,79.21
2023-04-18T21:04:14.992Z,79.76
2023-04-18T21:06:41.746Z,79.44
2023-04-18T21:09:08.663Z,79.66
2023-04-18T21:11:35.229Z,80.21
2023-04-18T21:14:03.702Z,80.64
2023-04-18T21:16:30.247Z,80.18
2023-04-18T21:18:56.855Z,79.75
2023-04-18T21:21:24.248Z,80.52
2023-04-18T21:23:50.808Z,80.39
2023-04-18T21:26:17.234Z,80.71
2023-04-18T21:28:57.707Z,80.82
2023-04-18T21:31:29.047Z,80.82
2023-04-18T21:33:56.991Z,80.72
2023-04-18T21:36:24.574Z,81.23
2023-04-18T21:38:55.981Z,81.00
2023-04-18T21:41:23.473Z,81.35
2023-04-18T21:43:50.141Z,81.04
2023-04-18T21:46:17.175Z,81.51
2023-04-18T21:48:45.869Z,81.05
2023-04-18T21:51:14.303Z,80.75
2023-04-18T21:53:41.779Z,81.97
2023-04-18T21:56:08.742Z,81.18
2023-04-18T21:58:35.303Z,81.24
2023-04-18T22:01:01.834Z,81.55
2023-04-18T22:03:28.864Z,81.46
2023-04-18T22:05:56.549Z,80.93
2023-04-18T22:08:25.672Z,81.54
2023-04-18T22:10:57.574Z,82.01
2023-04-18T22:13:33.097Z,82.15
2023-04-18T22:16:03.287Z,81.85
2023-04-18T22:18:31.381Z,82.80
2023-04-18T22:20:57.817Z,82.89
2023-04-18T22:23:24.617Z,81.92
2023-04-18T22:25:51.041Z,81.96
2023-04-18T22:28:17.428Z,82.81
2023-04-18T22:30:43.875Z,82.24
2023-04-18T22:33:10.493Z,82.78
2023-04-18T22:35:36.900Z,82.45
2023-04-18T22:38:03.339Z,82.41
2023-04-18T22:40:30.009Z,82.63
2023-04-18T22:42:56.408Z,83.29
2023-04-18T22:45:22.848Z,83.58
2023-04-18T22:47:49.414Z,83.36
2023-04-18T22:50:15.996Z,83.99
2023-04-18T22:52:42.482Z,83.34
2023-04-18T22:55:09.392Z,83.87
2023-04-18T22:57:36.102Z,83.02
2023-04-18T23:00:04.708Z,83.61
2023-04-18T23:02:31.341Z,83.86
2023-04-18T23:04:59.581Z,84.08
2023-04-18T23:07:26.046Z,84.44
2023-04-18T23:09:52.508Z,84.62
2023-04-18T23:12:18.970Z,84.70
2023-04-18T23:14:45.562Z,85.07
2023-04-18T23:17:11.983Z,85.04
2023-04-18T23:19:38.659Z,85.08
2023-04-18T23:22:05.085Z,85.71
2023-04-18T23:24:31.884Z,85.72
2023-04-18T23:26:58.275Z,85.40
2023-04-18T23:29:24.901Z,85.38
2023-04-18T23:31:51.647Z,86.03
2023-04-18T23:34:18.119Z,85.92
2023-04-18T23:36:44.862Z,85.88
2023-04-18T23:39:11.485Z,86.16
2023-04-18T23:41:37.895Z,85.84
2023-04-18T23:44:04.437Z,86.43
2023-04-18T23:46:31.108Z,85.71
2023-04-18T23:48:57.623Z,86.38
2023-04-18T23:51:24.037Z,86.41
2023-04-18T23:53:50.833Z,86.34
2023-04-18T23:56:17.259Z,86.09
2023-04-18T23:58:43.668Z,86.40
